sensor_id;sensor_type;location;lat;lon;timestamp;pressure;altitude;pressure_sealevel;temperature;humidity
42105;BME280;68365;51.472;5.712;2023-05-01T00:01:28;101539.47;;;16.45;100.00
42105;BME280;68365;51.472;5.712;2023-05-01T00:03:54;101533.22;;;16.46;100.00
42105;BME280;68365;51.472;5.712;2023-05-01T00:06:20;101527.19;;;16.46;100.00
42105;BME280;68365;51.472;5.712;2023-05-01T00:08:46;101523.75;;;16.45;100.00
42105;BME280;68365;51.472;5.712;2023-05-01T00:11:12;101519.47;;;16.44;100.00
42105;BME280;68365;51.472;5.712;2023-05-01T00:13:38;101520.31;;;16.45;100.00
42105;BME280;68365;51.472;5.712;2023-05-01T00:16:08;101511.63;;;16.44;100.00
42105;BME280;68365;51.472;5.712;2023-05-01T00:18:35;101509.19;;;16.43;100.00
42105;BME280;68365;51.472;5.712;2023-05-01T00:21:01;101502.31;;;16.42;100.00
42105;BME280;68365;51.472;5.712;2023-05-01T00:23:27;101504.94;;;16.42;100.00
42105;BME280;68365;51.472;5.712;2023-05-01T00:25:53;101497.25;;;16.40;100.00
42105;BME280;68365;51.472;5.712;2023-05-01T00:28:19;101499.69;;;16.42;100.00
42105;BME280;68365;51.472;5.712;2023-05-01T00:30:45;101503.13;;;16.42;100.00
42105;BME280;68365;51.472;5.712;2023-05-01T00:33:12;101497.25;;;16.40;100.00
42105;BME280;68365;51.472;5.712;2023-05-01T00:35:38;101491.19;;;16.40;100.00
42105;BME280;68365;51.472;5.712;2023-05-01T00:38:04;101493.81;;;16.40;100.00
42105;BME280;68365;51.472;5.712;2023-05-01T00:40:30;101490.22;;;16.41;100.00
42105;BME280;68365;51.472;5.712;2023-05-01T00:42:56;101486.13;;;16.38;100.00
42105;BME280;68365;51.472;5.712;2023-05-01T00:45:21;101484.34;;;16.39;100.00
42105;BME280;68365;51.472;5.712;2023-05-01T00:47:47;101485.97;;;16.40;100.00
42105;BME280;68365;51.472;5.712;2023-05-01T00:50:13;101483.34;;;16.40;100.00
42105;BME280;68365;51.472;5.712;2023-05-01T00:52:39;101484.34;;;16.39;100.00
42105;BME280;68365;51.472;5.712;2023-05-01T00:55:06;101476.03;;;16.35;100.00
42105;BME280;68365;51.472;5.712;2023-05-01T00:57:32;101467.34;;;16.35;100.00
42105;BME280;68365;51.472;5.712;2023-05-01T00:59:58;101471.41;;;16.37;100.00
42105;BME280;68365;51.472;5.712;2023-05-01T01:02:24;101466.19;;;16.37;100.00
42105;BME280;68365;51.472;5.712;2023-05-01T01:04:51;101462.75;;;16.37;100.00
42105;BME280;68365;51.472;5.712;2023-05-01T01:07:24;101456.69;;;16.36;100.00
42105;BME280;68365;51.472;5.712;2023-05-01T01:10:39;101449.66;;;16.37;100.00
42105;BME280;68365;51.472;5.712;2023-05-01T01:13:38;101450.63;;;16.36;100.00
42105;BME280;68365;51.472;5.712;2023-05-01T01:22:56;101442.78;;;16.36;100.00
42105;BME280;68365;51.472;5.712;2023-05-01T01:36:45;101420.53;;;16.32;100.00
42105;BME280;68365;51.472;5.712;2023-05-01T01:39:29;101425.63;;;16.33;100.00
42105;BME280;68365;51.472;5.712;2023-05-01T01:41:58;101416.09;;;16.32;100.00
42105;BME280;68365;51.472;5.712;2023-05-01T01:44:51;101415.31;;;16.32;100.00
42105;BME280;68365;51.472;5.712;2023-05-01T01:47:18;101417.94;;;16.32;100.00
42105;BME280;68365;51.472;5.712;2023-05-01T01:49:49;101407.63;;;16.30;100.00
42105;BME280;68365;51.472;5.712;2023-05-01T01:52:18;101401.41;;;16.31;100.00
42105;BME280;68365;51.472;5.712;2023-05-01T01:54:51;101396.50;;;16.28;100.00
42105;BME280;68365;51.472;5.712;2023-05-01T01:57:20;101400.13;;;16.27;100.00
42105;BME280;68365;51.472;5.712;2023-05-01T01:59:49;101386.03;;;16.28;100.00
42105;BME280;68365;51.472;5.712;2023-05-01T02:02:18;101381.00;;;16.26;100.00
42105;BME280;68365;51.472;5.712;2023-05-01T02:04:49;101381.78;;;16.27;100.00
42105;BME280;68365;51.472;5.712;2023-05-01T02:07:16;101383.41;;;16.28;100.00
42105;BME280;68365;51.472;5.712;2023-05-01T02:09:44;101381.00;;;16.26;100.00
42105;BME280;68365;51.472;5.712;2023-05-01T02:12:11;101378.38;;;16.26;100.00
42105;BME280;68365;51.472;5.712;2023-05-01T02:14:40;101374.91;;;16.26;100.00
42105;BME280;68365;51.472;5.712;2023-05-01T02:17:08;101375.56;;;16.28;100.00
42105;BME280;68365;51.472;5.712;2023-05-01T02:19:37;101376.56;;;16.27;100.00
42105;BME280;68365;51.472;5.712;2023-05-01T02:22:05;101369.69;;;16.26;100.00
42105;BME280;68365;51.472;5.712;2023-05-01T02:24:32;101357.59;;;16.25;100.00
42105;BME280;68365;51.472;5.712;2023-05-01T02:27:19;101362.66;;;16.26;100.00
42105;BME280;68365;51.472;5.712;2023-05-01T02:29:46;101361.00;;;16.25;100.00
42105;BME280;68365;51.472;5.712;2023-05-01T02:32:11;101358.41;;;16.25;100.00
42105;BME280;68365;51.472;5.712;2023-05-01T02:34:37;101357.59;;;16.25;100.00
42105;BME280;68365;51.472;5.712;2023-05-01T02:37:05;101355.94;;;16.24;100.00
42105;BME280;68365;51.472;5.712;2023-05-01T02:39:34;101355.94;;;16.24;100.00
42105;BME280;68365;51.472;5.712;2023-05-01T02:42:01;101350.72;;;16.24;100.00
42105;BME280;68365;51.472;5.712;2023-05-01T02:44:38;101354.97;;;16.25;100.00
42105;BME280;68365;51.472;5.712;2023-05-01T02:47:06;101353.31;;;16.24;100.00
42105;BME280;68365;51.472;5.712;2023-05-01T02:49:34;101344.66;;;16.23;100.00
42105;BME280;68365;51.472;5.712;2023-05-01T02:52:02;101338.78;;;16.21;100.00
42105;BME280;68365;51.472;5.712;2023-05-01T02:54:30;101332.56;;;16.22;100.00
42105;BME280;68365;51.472;5.712;2023-05-01T02:56:56;101331.75;;;16.22;100.00
42105;BME280;68365;51.472;5.712;2023-05-01T02:59:24;101333.38;;;16.23;100.00
42105;BME280;68365;51.472;5.712;2023-05-01T03:01:51;101323.88;;;16.22;100.00
42105;BME280;68365;51.472;5.712;2023-05-01T03:04:17;101329.31;;;16.20;100.00
42105;BME280;68365;51.472;5.712;2023-05-01T03:06:43;101328.31;;;16.21;100.00
42105;BME280;68365;51.472;5.712;2023-05-01T03:09:10;101323.25;;;16.20;100.00
42105;BME280;68365;51.472;5.712;2023-05-01T03:11:36;101318.84;;;16.20;100.00
42105;BME280;68365;51.472;5.712;2023-05-01T03:14:02;101323.25;;;16.20;100.00
42105;BME280;68365;51.472;5.712;2023-05-01T03:16:28;101320.47;;;16.21;100.00
42105;BME280;68365;51.472;5.712;2023-05-01T03:18:54;101319.47;;;16.22;100.00
42105;BME280;68365;51.472;5.712;2023-05-01T03:21:20;101313.41;;;16.22;100.00
42105;BME280;68365;51.472;5.712;2023-05-01T03:23:46;101317.22;;;16.19;100.00
42105;BME280;68365;51.472;5.712;2023-05-01T03:26:12;101311.81;;;16.21;100.00
42105;BME280;68365;51.472;5.712;2023-05-01T03:28:38;101309.34;;;16.19;100.00
42105;BME280;68365;51.472;5.712;2023-05-01T03:31:04;101308.38;;;16.20;100.00
42105;BME280;68365;51.472;5.712;2023-05-01T03:33:29;101304.91;;;16.20;100.00
42105;BME280;68365;51.472;5.712;2023-05-01T03:36:03;101294.66;;;16.18;100.00
42105;BME280;68365;51.472;5.712;2023-05-01T03:38:32;101300.88;;;16.17;100.00
42105;BME280;68365;51.472;5.712;2023-05-01T03:40:58;101290.38;;;16.17;100.00
42105;BME280;68365;51.472;5.712;2023-05-01T03:43:24;101292.03;;;16.18;100.00
42105;BME280;68365;51.472;5.712;2023-05-01T03:45:51;101284.34;;;16.17;100.00
42105;BME280;68365;51.472;5.712;2023-05-01T03:48:18;101285.16;;;16.17;100.00
42105;BME280;68365;51.472;5.712;2023-05-01T03:50:44;101285.94;;;16.18;100.00
42105;BME280;68365;51.472;5.712;2023-05-01T03:53:11;101296.25;;;16.19;100.00
42105;BME280;68365;51.472;5.712;2023-05-01T03:55:38;101291.19;;;16.18;100.00
42105;BME280;68365;51.472;5.712;2023-05-01T03:58:05;101292.19;;;16.17;100.00
42105;BME280;68365;51.472;5.712;2023-05-01T04:00:32;101286.78;;;16.18;100.00
42105;BME280;68365;51.472;5.712;2023-05-01T04:02:58;101281.09;;;16.15;100.00
42105;BME280;68365;51.472;5.712;2023-05-01T04:05:24;101273.41;;;16.13;100.00
42105;BME280;68365;51.472;5.712;2023-05-01T04:07:50;101278.66;;;16.13;100.00
42105;BME280;68365;51.472;5.712;2023-05-01T04:10:16;101270.63;;;16.15;100.00
42105;BME280;68365;51.472;5.712;2023-05-01T04:12:42;101274.22;;;16.14;100.00
42105;BME280;68365;51.472;5.712;2023-05-01T04:15:08;101267.19;;;16.14;100.00
42105;BME280;68365;51.472;5.712;2023-05-01T04:17:35;101273.25;;;16.15;100.00
42105;BME280;68365;51.472;5.712;2023-05-01T04:20:02;101272.59;;;16.13;100.00
42105;BME280;68365;51.472;5.712;2023-05-01T04:22:30;101264.56;;;16.14;100.00
42105;BME280;68365;51.472;5.712;2023-05-01T04:24:56;101270.16;;;16.11;100.00
42105;BME280;68365;51.472;5.712;2023-05-01T04:27:22;101269.19;;;16.12;100.00
42105;BME280;68365;51.472;5.712;2023-05-01T04:29:48;101260.50;;;16.12;100.00
42105;BME280;68365;51.472;5.712;2023-05-01T04:32:14;101264.13;;;16.11;100.00
42105;BME280;68365;51.472;5.712;2023-05-01T04:34:39;101254.44;;;16.11;100.00
42105;BME280;68365;51.472;5.712;2023-05-01T04:37:05;101264.13;;;16.11;100.00
42105;BME280;68365;51.472;5.712;2023-05-01T04:39:33;101257.06;;;16.11;100.00
42105;BME280;68365;51.472;5.712;2023-05-01T04:42:01;101260.50;;;16.12;100.00
42105;BME280;68365;51.472;5.712;2023-05-01T04:44:28;101257.25;;;16.09;100.00
42105;BME280;68365;51.472;5.712;2023-05-01T04:46:54;101260.69;;;16.10;100.00
42105;BME280;68365;51.472;5.712;2023-05-01T04:49:21;101261.50;;;16.11;100.00
42105;BME280;68365;51.472;5.712;2023-05-01T04:51:47;101260.50;;;16.12;100.00
42105;BME280;68365;51.472;5.712;2023-05-01T04:54:13;101261.50;;;16.11;100.00
42105;BME280;68365;51.472;5.712;2023-05-01T04:56:39;101261.31;;;16.12;100.00
42105;BME280;68365;51.472;5.712;2023-05-01T04:59:05;101259.69;;;16.11;100.00
42105;BME280;68365;51.472;5.712;2023-05-01T05:01:30;101257.25;;;16.09;100.00
42105;BME280;68365;51.472;5.712;2023-05-01T05:03:56;101257.25;;;16.09;100.00
42105;BME280;68365;51.472;5.712;2023-05-01T05:06:22;101254.63;;;16.09;100.00
42105;BME280;68365;51.472;5.712;2023-05-01T05:08:48;101252.22;;;16.08;100.00
42105;BME280;68365;51.472;5.712;2023-05-01T05:11:17;101267.53;;;16.11;100.00
42105;BME280;68365;51.472;5.712;2023-05-01T05:13:44;101270.97;;;16.12;100.00
42105;BME280;68365;51.472;5.712;2023-05-01T05:16:11;101272.78;;;16.11;100.00
42105;BME280;68365;51.472;5.712;2023-05-01T05:18:37;101280.47;;;16.13;100.00
42105;BME280;68365;51.472;5.712;2023-05-01T05:21:04;101273.78;;;16.10;100.00
42105;BME280;68365;51.472;5.712;2023-05-01T05:23:31;101276.22;;;16.12;100.00
42105;BME280;68365;51.472;5.712;2023-05-01T05:25:57;101284.06;;;16.12;100.00
42105;BME280;68365;51.472;5.712;2023-05-01T05:28:26;101285.88;;;16.11;100.00
42105;BME280;68365;51.472;5.712;2023-05-01T05:30:53;101287.69;;;16.11;100.00
42105;BME280;68365;51.472;5.712;2023-05-01T05:33:19;101285.25;;;16.09;100.00
42105;BME280;68365;51.472;5.712;2023-05-01T05:35:45;101279.03;;;16.10;100.00
42105;BME280;68365;51.472;5.712;2023-05-01T05:38:11;101284.06;;;16.12;100.00
42105;BME280;68365;51.472;5.712;2023-05-01T05:40:38;101283.25;;;16.11;100.00
42105;BME280;68365;51.472;5.712;2023-05-01T05:43:04;101278.19;;;16.09;100.00
42105;BME280;68365;51.472;5.712;2023-05-01T05:45:33;101278.81;;;16.12;100.00
42105;BME280;68365;51.472;5.712;2023-05-01T05:47:59;101284.91;;;16.12;100.00
42105;BME280;68365;51.472;5.712;2023-05-01T05:50:26;101284.06;;;16.12;100.00
42105;BME280;68365;51.472;5.712;2023-05-01T05:52:52;101272.78;;;16.11;100.00
42105;BME280;68365;51.472;5.712;2023-05-01T05:55:18;101277.22;;;16.11;100.00
42105;BME280;68365;51.472;5.712;2023-05-01T05:57:43;101277.84;;;16.13;100.00
42105;BME280;68365;51.472;5.712;2023-05-01T06:00:10;101278.66;;;16.13;100.00
42105;BME280;68365;51.472;5.712;2023-05-01T06:02:36;101275.41;;;16.11;100.00
42105;BME280;68365;51.472;5.712;2023-05-01T06:05:03;101277.84;;;16.13;100.00
42105;BME280;68365;51.472;5.712;2023-05-01T06:07:28;101273.59;;;16.12;100.00
42105;BME280;68365;51.472;5.712;2023-05-01T06:09:55;101266.56;;;16.12;100.00
42105;BME280;68365;51.472;5.712;2023-05-01T06:12:26;101263.75;;;16.14;100.00
42105;BME280;68365;51.472;5.712;2023-05-01T06:14:52;101273.25;;;16.15;100.00
42105;BME280;68365;51.472;5.712;2023-05-01T06:17:18;101270.63;;;16.15;100.00
42105;BME280;68365;51.472;5.712;2023-05-01T06:19:44;101270.44;;;16.16;100.00
42105;BME280;68365;51.472;5.712;2023-05-01T06:22:09;101257.69;;;16.13;100.00
42105;BME280;68365;51.472;5.712;2023-05-01T06:24:35;101261.97;;;16.14;100.00
42105;BME280;68365;51.472;5.712;2023-05-01T06:27:02;101259.34;;;16.14;100.00
42105;BME280;68365;51.472;5.712;2023-05-01T06:29:27;101267.81;;;16.16;100.00
42105;BME280;68365;51.472;5.712;2023-05-01T06:31:53;101271.88;;;16.19;100.00
42105;BME280;68365;51.472;5.712;2023-05-01T06:34:19;101265.63;;;16.20;100.00
42105;BME280;68365;51.472;5.712;2023-05-01T06:36:45;101258.22;;;16.23;100.00
42105;BME280;68365;51.472;5.712;2023-05-01T06:39:11;101264.66;;;16.21;100.00
42105;BME280;68365;51.472;5.712;2023-05-01T06:41:36;101262.22;;;16.19;100.00
42105;BME280;68365;51.472;5.712;2023-05-01T06:44:03;101256.97;;;16.19;100.00
42105;BME280;68365;51.472;5.712;2023-05-01T06:46:29;101263.91;;;16.27;100.00
42105;BME280;68365;51.472;5.712;2023-05-01T06:48:55;101258.06;;;16.25;100.00
42105;BME280;68365;51.472;5.712;2023-05-01T06:51:21;101259.94;;;16.31;100.00
42105;BME280;68365;51.472;5.712;2023-05-01T06:53:47;101262.56;;;16.31;100.00
42105;BME280;68365;51.472;5.712;2023-05-01T06:56:13;101269.97;;;16.27;100.00
42105;BME280;68365;51.472;5.712;2023-05-01T06:58:38;101265.19;;;16.31;100.00
42105;BME280;68365;51.472;5.712;2023-05-01T07:01:04;101258.13;;;16.32;100.00
42105;BME280;68365;51.472;5.712;2023-05-01T07:03:30;101256.13;;;16.34;100.00
42105;BME280;68365;51.472;5.712;2023-05-01T07:05:56;101261.53;;;16.32;100.00
42105;BME280;68365;51.472;5.712;2023-05-01T07:08:23;101260.56;;;16.33;100.00
42105;BME280;68365;51.472;5.712;2023-05-01T07:10:49;101261.38;;;16.34;100.00
42105;BME280;68365;51.472;5.712;2023-05-01T07:13:16;101268.88;;;16.37;100.00
42105;BME280;68365;51.472;5.712;2023-05-01T07:15:41;101261.19;;;16.35;100.00
42105;BME280;68365;51.472;5.712;2023-05-01T07:18:08;101265.06;;;16.39;100.00
42105;BME280;68365;51.472;5.712;2023-05-01T07:20:34;101252.22;;;16.44;100.00
42105;BME280;68365;51.472;5.712;2023-05-01T07:23:00;101254.84;;;16.44;100.00
42105;BME280;68365;51.472;5.712;2023-05-01T07:25:26;101251.78;;;16.41;100.00
42105;BME280;68365;51.472;5.712;2023-05-01T07:27:51;101257.84;;;16.41;100.00
42105;BME280;68365;51.472;5.712;2023-05-01T07:30:18;101259.66;;;16.41;100.00
42105;BME280;68365;51.472;5.712;2023-05-01T07:32:44;101263.53;;;16.45;100.00
42105;BME280;68365;51.472;5.712;2023-05-01T07:35:10;101256.28;;;16.47;100.00
42105;BME280;68365;51.472;5.712;2023-05-01T07:37:36;101256.91;;;16.49;100.00
42105;BME280;68365;51.472;5.712;2023-05-01T07:40:02;101250.41;;;16.45;100.00
42105;BME280;68365;51.472;5.712;2023-05-01T07:42:28;101254.09;;;16.50;100.00
42105;BME280;68365;51.472;5.712;2023-05-01T07:44:54;101250.50;;;16.52;100.00
42105;BME280;68365;51.472;5.712;2023-05-01T07:47:20;101248.66;;;16.52;100.00
42105;BME280;68365;51.472;5.712;2023-05-01T07:49:46;101243.81;;;16.49;100.00
42105;BME280;68365;51.472;5.712;2023-05-01T07:52:11;101252.31;;;16.51;100.00
42105;BME280;68365;51.472;5.712;2023-05-01T07:54:38;101251.47;;;16.50;100.00
42105;BME280;68365;51.472;5.712;2023-05-01T07:57:05;101251.47;;;16.50;100.00
42105;BME280;68365;51.472;5.712;2023-05-01T07:59:31;101248.66;;;16.52;100.00
42105;BME280;68365;51.472;5.712;2023-05-01T08:01:57;101242.88;;;16.57;100.00
42105;BME280;68365;51.472;5.712;2023-05-01T08:04:23;101242.88;;;16.57;100.00
42105;BME280;68365;51.472;5.712;2023-05-01T08:06:51;101243.50;;;16.59;100.00
42105;BME280;68365;51.472;5.712;2023-05-01T08:09:17;101247.13;;;16.58;100.00
42105;BME280;68365;51.472;5.712;2023-05-01T08:11:43;101246.50;;;16.56;100.00
42105;BME280;68365;51.472;5.712;2023-05-01T08:14:09;101243.44;;;16.52;100.00
42105;BME280;68365;51.472;5.712;2023-05-01T08:16:35;101241.59;;;16.53;100.00
42105;BME280;68365;51.472;5.712;2023-05-01T08:19:02;101245.69;;;16.55;100.00
42105;BME280;68365;51.472;5.712;2023-05-01T08:21:28;101237.56;;;16.50;100.00
42105;BME280;68365;51.472;5.712;2023-05-01T08:23:55;101248.50;;;16.54;100.00
42105;BME280;68365;51.472;5.712;2023-05-01T08:26:21;101245.47;;;16.57;100.00
42105;BME280;68365;51.472;5.712;2023-05-01T08:28:47;101250.03;;;16.48;100.00
42105;BME280;68365;51.472;5.712;2023-05-01T08:31:13;101247.53;;;16.40;100.00
42105;BME280;68365;51.472;5.712;2023-05-01T08:33:39;101251.50;;;16.36;100.00
42105;BME280;68365;51.472;5.712;2023-05-01T08:36:09;101253.44;;;16.27;100.00
42105;BME280;68365;51.472;5.712;2023-05-01T08:38:36;101247.69;;;16.17;100.00
42105;BME280;68365;51.472;5.712;2023-05-01T08:41:02;101249.06;;;16.34;100.00
42105;BME280;68365;51.472;5.712;2023-05-01T08:43:30;101245.41;;;16.28;100.00
42105;BME280;68365;51.472;5.712;2023-05-01T08:45:58;101244.84;;;16.33;100.00
42105;BME280;68365;51.472;5.712;2023-05-01T08:48:30;101236.81;;;16.35;100.00
42105;BME280;68365;51.472;5.712;2023-05-01T08:50:58;101242.69;;;16.37;100.00
42105;BME280;68365;51.472;5.712;2023-05-01T08:53:25;101242.69;;;16.37;100.00
42105;BME280;68365;51.472;5.712;2023-05-01T08:55:54;101236.19;;;16.33;100.00
42105;BME280;68365;51.472;5.712;2023-05-01T08:58:24;101240.28;;;16.42;100.00
42105;BME280;68365;51.472;5.712;2023-05-01T09:00:52;101242.91;;;16.42;100.00
42105;BME280;68365;51.472;5.712;2023-05-01T09:03:21;101238.31;;;16.44;100.00
42105;BME280;68365;51.472;5.712;2023-05-01T09:05:47;101242.69;;;16.37;100.00
42105;BME280;68365;51.472;5.712;2023-05-01T09:08:14;101247.72;;;16.38;100.00
42105;BME280;68365;51.472;5.712;2023-05-01T09:10:44;101241.03;;;16.36;100.00
42105;BME280;68365;51.472;5.712;2023-05-01T09:13:10;101242.28;;;16.40;100.00
42105;BME280;68365;51.472;5.712;2023-05-01T09:15:37;101243.09;;;16.40;100.00
42105;BME280;68365;51.472;5.712;2023-05-01T09:18:03;101236.69;;;16.43;100.00
42105;BME280;68365;51.472;5.712;2023-05-01T09:20:29;101242.81;;;16.50;100.00
42105;BME280;68365;51.472;5.712;2023-05-01T09:22:56;101242.44;;;16.53;100.00
42105;BME280;68365;51.472;5.712;2023-05-01T09:25:22;101242.44;;;16.53;100.00
42105;BME280;68365;51.472;5.712;2023-05-01T09:27:48;101242.06;;;16.56;100.00
42105;BME280;68365;51.472;5.712;2023-05-01T09:30:33;101244.31;;;16.59;100.00
42105;BME280;68365;51.472;5.712;2023-05-01T09:33:12;101246.94;;;16.59;100.00
42105;BME280;68365;51.472;5.712;2023-05-01T09:35:55;101246.31;;;16.57;100.00
42105;BME280;68365;51.472;5.712;2023-05-01T09:38:25;101237.44;;;16.58;100.00
42105;BME280;68365;51.472;5.712;2023-05-01T09:41:03;101244.13;;;16.61;100.00
42105;BME280;68365;51.472;5.712;2023-05-01T09:43:30;101238.81;;;16.54;100.00
42105;BME280;68365;51.472;5.712;2023-05-01T09:46:02;101241.06;;;16.57;100.00
42105;BME280;68365;51.472;5.712;2023-05-01T09:48:29;101241.44;;;16.54;100.00
42105;BME280;68365;51.472;5.712;2023-05-01T09:50:56;101247.31;;;16.56;100.00
42105;BME280;68365;51.472;5.712;2023-05-01T09:53:42;101238.47;;;16.57;100.00
42105;BME280;68365;51.472;5.712;2023-05-01T09:56:08;101241.25;;;16.56;100.00
42105;BME280;68365;51.472;5.712;2023-05-01T09:58:34;101239.44;;;16.56;100.00
42105;BME280;68365;51.472;5.712;2023-05-01T10:00:59;101235.22;;;16.55;100.00
42105;BME280;68365;51.472;5.712;2023-05-01T10:03:27;101245.13;;;16.60;100.00
42105;BME280;68365;51.472;5.712;2023-05-01T10:05:52;101242.50;;;16.60;100.00
42105;BME280;68365;51.472;5.712;2023-05-01T10:08:21;101241.31;;;16.62;100.00
42105;BME280;68365;51.472;5.712;2023-05-01T10:11:02;101236.25;;;16.61;100.00
42105;BME280;68365;51.472;5.712;2023-05-01T10:13:29;101242.13;;;16.63;100.00
42105;BME280;68365;51.472;5.712;2023-05-01T10:15:58;101243.13;;;16.62;100.00
42105;BME280;68365;51.472;5.712;2023-05-01T10:18:26;101235.28;;;16.62;100.00
42105;BME280;68365;51.472;5.712;2023-05-01T10:20:53;101243.75;;;16.64;100.00
42105;BME280;68365;51.472;5.712;2023-05-01T10:23:19;101228.84;;;16.64;100.00
42105;BME280;68365;51.472;5.712;2023-05-01T10:25:46;101239.38;;;16.71;100.00
42105;BME280;68365;51.472;5.712;2023-05-01T10:28:14;101240.00;;;16.73;100.00
42105;BME280;68365;51.472;5.712;2023-05-01T10:30:40;101232.22;;;16.80;100.00
42105;BME280;68365;51.472;5.712;2023-05-01T10:33:07;101233.59;;;16.76;100.00
42105;BME280;68365;51.472;5.712;2023-05-01T10:35:38;101234.97;;;16.72;100.00
42105;BME280;68365;51.472;5.712;2023-05-01T10:38:07;101237.03;;;16.76;100.00
42105;BME280;68365;51.472;5.712;2023-05-01T10:40:48;101242.78;;;16.86;100.00
42105;BME280;68365;51.472;5.712;2023-05-01T10:43:21;101234.53;;;16.89;100.00
42105;BME280;68365;51.472;5.712;2023-05-01T10:51:28;101233.53;;;16.91;100.00
42105;BME280;68365;51.472;5.712;2023-05-01T10:56:45;101216.19;;;16.89;100.00
42105;BME280;68365;51.472;5.712;2023-05-01T11:02:43;101207.31;;;16.91;100.00
42105;BME280;68365;51.472;5.712;2023-05-01T11:05:12;101216.44;;;16.95;100.00
42105;BME280;68365;51.472;5.712;2023-05-01T11:07:40;101219.50;;;16.98;100.00
42105;BME280;68365;51.472;5.712;2023-05-01T11:19:57;101209.25;;;17.03;100.00
42105;BME280;68365;51.472;5.712;2023-05-01T11:22:40;101204.78;;;17.04;100.00
42105;BME280;68365;51.472;5.712;2023-05-01T11:25:25;101213.28;;;17.06;100.00
42105;BME280;68365;51.472;5.712;2023-05-01T11:28:02;101207.41;;;17.04;100.00
42105;BME280;68365;51.472;5.712;2023-05-01T11:30:46;101205.19;;;17.01;100.00
42105;BME280;68365;51.472;5.712;2023-05-01T11:33:20;101216.13;;;17.04;100.00
42105;BME280;68365;51.472;5.712;2023-05-01T11:35:57;101213.88;;;17.01;100.00
42105;BME280;68365;51.472;5.712;2023-05-01T11:38:28;101217.09;;;17.03;100.00
42105;BME280;68365;51.472;5.712;2023-05-01T11:41:03;101216.13;;;17.04;100.00
42105;BME280;68365;51.472;5.712;2023-05-01T11:43:47;101213.06;;;17.01;100.00
42105;BME280;68365;51.472;5.712;2023-05-01T11:46:31;101212.25;;;17.00;100.00
42105;BME280;68365;51.472;5.712;2023-05-01T11:49:08;101219.91;;;17.02;100.00
42105;BME280;68365;51.472;5.712;2023-05-01T11:51:34;101214.88;;;17.00;100.00
42105;BME280;68365;51.472;5.712;2023-05-01T11:54:09;101215.88;;;16.99;100.00
42105;BME280;68365;51.472;5.712;2023-05-01T11:56:38;101218.53;;;17.06;100.00
42105;BME280;68365;51.472;5.712;2023-05-01T11:59:14;101214.31;;;17.05;100.00
42105;BME280;68365;51.472;5.712;2023-05-01T12:01:44;101211.91;;;17.10;100.00
42105;BME280;68365;51.472;5.712;2023-05-01T12:04:26;101213.72;;;17.09;100.00
42105;BME280;68365;51.472;5.712;2023-05-01T12:07:25;101217.84;;;17.19;100.00
42105;BME280;68365;51.472;5.712;2023-05-01T12:10:06;101222.06;;;17.20;100.00
42105;BME280;68365;51.472;5.712;2023-05-01T12:12:59;101225.31;;;17.22;100.00
42105;BME280;68365;51.472;5.712;2023-05-01T12:15:28;101219.09;;;17.23;100.00
42105;BME280;68365;51.472;5.712;2023-05-01T12:18:16;101219.25;;;17.21;100.00
42105;BME280;68365;51.472;5.712;2023-05-01T12:20:55;101219.25;;;17.21;100.00
42105;BME280;68365;51.472;5.712;2023-05-01T12:23:34;101219.25;;;17.21;100.00
42105;BME280;68365;51.472;5.712;2023-05-01T12:26:23;101235.00;;;17.21;100.00
42105;BME280;68365;51.472;5.712;2023-05-01T12:29:37;101225.91;;;17.17;100.00
42105;BME280;68365;51.472;5.712;2023-05-01T12:32:06;101218.97;;;17.09;100.00
42105;BME280;68365;51.472;5.712;2023-05-01T12:34:36;101230.84;;;17.05;100.00
42105;BME280;68365;51.472;5.712;2023-05-01T12:37:30;101226.59;;;17.04;100.00
42105;BME280;68365;51.472;5.712;2023-05-01T12:46:54;101215.69;;;17.01;100.00
42105;BME280;68365;51.472;5.712;2023-05-01T12:49:27;101222.16;;;17.05;100.00
42105;BME280;68365;51.472;5.712;2023-05-01T12:51:59;101213.91;;;17.08;100.00
42105;BME280;68365;51.472;5.712;2023-05-01T12:54:34;101228.97;;;17.21;100.00
42105;BME280;68365;51.472;5.712;2023-05-01T12:59:36;101222.94;;;17.27;100.00
42105;BME280;68365;51.472;5.712;2023-05-01T13:02:10;101223.94;;;17.26;100.00
42105;BME280;68365;51.472;5.712;2023-05-01T13:04:37;101227.34;;;17.26;100.00
42105;BME280;68365;51.472;5.712;2023-05-01T13:07:14;101225.97;;;17.30;100.00
42105;BME280;68365;51.472;5.712;2023-05-01T13:09:55;101225.00;;;17.32;100.00
42105;BME280;68365;51.472;5.712;2023-05-01T13:12:23;101236.09;;;17.34;100.00
42105;BME280;68365;51.472;5.712;2023-05-01T13:14:50;101239.94;;;17.31;100.00
42105;BME280;68365;51.472;5.712;2023-05-01T13:17:24;101240.34;;;17.35;100.00
42105;BME280;68365;51.472;5.712;2023-05-01T13:19:54;101240.72;;;17.32;100.00
42105;BME280;68365;51.472;5.712;2023-05-01T13:22:32;101241.53;;;17.32;100.00
42105;BME280;68365;51.472;5.712;2023-05-01T13:25:00;101236.28;;;17.32;100.00
42105;BME280;68365;51.472;5.712;2023-05-01T13:27:27;101232.06;;;17.31;100.00
42105;BME280;68365;51.472;5.712;2023-05-01T13:29:55;101247.59;;;17.33;100.00
42105;BME280;68365;51.472;5.712;2023-05-01T13:32:26;101241.09;;;17.28;100.00
42105;BME280;68365;51.472;5.712;2023-05-01T13:35:08;101241.09;;;17.28;100.00
42105;BME280;68365;51.472;5.712;2023-05-01T13:37:39;101248.34;;;17.26;100.00
42105;BME280;68365;51.472;5.712;2023-05-01T13:40:05;101246.75;;;17.25;100.00